sensor_id;sensor_type;location;lat;lon;timestamp;P1;durP1;ratioP1;P2;durP2;ratioP2
14883;SDS011;7534;50.762;7.000;2023-03-26T00:01:32;7.10;;;2.23;;
14883;SDS011;7534;50.762;7.000;2023-03-26T00:04:02;11.70;;;2.47;;
14883;SDS011;7534;50.762;7.000;2023-03-26T00:06:31;12.43;;;2.37;;
14883;SDS011;7534;50.762;7.000;2023-03-26T00:09:03;12.97;;;2.50;;
14883;SDS011;7534;50.762;7.000;2023-03-26T00:11:34;11.83;;;2.60;;
14883;SDS011;7534;50.762;7.000;2023-03-26T00:14:01;12.50;;;2.57;;
14883;SDS011;7534;50.762;7.000;2023-03-26T00:16:28;11.07;;;2.87;;
14883;SDS011;7534;50.762;7.000;2023-03-26T00:18:56;10.33;;;2.70;;
14883;SDS011;7534;50.762;7.000;2023-03-26T00:21:24;12.13;;;2.40;;
14883;SDS011;7534;50.762;7.000;2023-03-26T00:23:55;11.70;;;2.60;;
14883;SDS011;7534;50.762;7.000;2023-03-26T00:26:27;11.50;;;2.50;;
14883;SDS011;7534;50.762;7.000;2023-03-26T00:28:55;14.33;;;2.77;;
14883;SDS011;7534;50.762;7.000;2023-03-26T00:31:21;12.80;;;2.47;;
14883;SDS011;7534;50.762;7.000;2023-03-26T00:33:49;8.50;;;2.13;;
14883;SDS011;7534;50.762;7.000;2023-03-26T00:36:18;14.33;;;2.63;;
14883;SDS011;7534;50.762;7.000;2023-03-26T00:38:44;11.37;;;2.90;;
14883;SDS011;7534;50.762;7.000;2023-03-26T00:41:13;10.13;;;2.90;;
14883;SDS011;7534;50.762;7.000;2023-03-26T00:43:42;13.10;;;2.77;;
14883;SDS011;7534;50.762;7.000;2023-03-26T00:46:12;8.73;;;2.57;;
14883;SDS011;7534;50.762;7.000;2023-03-26T00:48:39;12.20;;;3.30;;
14883;SDS011;7534;50.762;7.000;2023-03-26T00:51:07;11.57;;;2.70;;
14883;SDS011;7534;50.762;7.000;2023-03-26T00:53:34;11.57;;;2.50;;
14883;SDS011;7534;50.762;7.000;2023-03-26T00:56:03;7.80;;;2.07;;
14883;SDS011;7534;50.762;7.000;2023-03-26T00:58:30;12.10;;;2.83;;
14883;SDS011;7534;50.762;7.000;2023-03-26T01:00:58;10.77;;;2.53;;
14883;SDS011;7534;50.762;7.000;2023-03-26T01:03:30;10.17;;;2.50;;
14883;SDS011;7534;50.762;7.000;2023-03-26T01:11:13;12.37;;;2.57;;
14883;SDS011;7534;50.762;7.000;2023-03-26T01:13:46;11.80;;;2.73;;
14883;SDS011;7534;50.762;7.000;2023-03-26T01:18:57;11.77;;;2.53;;
14883;SDS011;7534;50.762;7.000;2023-03-26T01:21:25;13.87;;;2.57;;
14883;SDS011;7534;50.762;7.000;2023-03-26T01:24:07;12.47;;;2.77;;
14883;SDS011;7534;50.762;7.000;2023-03-26T01:29:40;8.80;;;2.87;;
14883;SDS011;7534;50.762;7.000;2023-03-26T01:35:29;8.10;;;2.00;;
14883;SDS011;7534;50.762;7.000;2023-03-26T01:38:23;9.20;;;2.40;;
14883;SDS011;7534;50.762;7.000;2023-03-26T01:43:59;8.63;;;3.13;;
14883;SDS011;7534;50.762;7.000;2023-03-26T01:46:47;15.03;;;2.97;;
14883;SDS011;7534;50.762;7.000;2023-03-26T01:49:16;12.53;;;2.47;;
14883;SDS011;7534;50.762;7.000;2023-03-26T01:51:43;10.90;;;2.60;;
14883;SDS011;7534;50.762;7.000;2023-03-26T01:54:13;11.87;;;2.40;;
14883;SDS011;7534;50.762;7.000;2023-03-26T01:56:49;14.40;;;2.83;;
14883;SDS011;7534;50.762;7.000;2023-03-26T02:00:30;10.40;;;2.07;;
14883;SDS011;7534;50.762;7.000;2023-03-26T02:03:15;12.20;;;3.03;;
14883;SDS011;7534;50.762;7.000;2023-03-26T02:08:40;14.17;;;3.63;;
14883;SDS011;7534;50.762;7.000;2023-03-26T02:11:28;11.23;;;2.90;;
14883;SDS011;7534;50.762;7.000;2023-03-26T02:13:54;8.40;;;2.37;;
14883;SDS011;7534;50.762;7.000;2023-03-26T02:16:20;11.53;;;2.50;;
14883;SDS011;7534;50.762;7.000;2023-03-26T02:18:46;9.43;;;3.07;;
14883;SDS011;7534;50.762;7.000;2023-03-26T02:21:17;15.23;;;3.20;;
14883;SDS011;7534;50.762;7.000;2023-03-26T02:23:49;8.03;;;2.40;;
14883;SDS011;7534;50.762;7.000;2023-03-26T02:26:22;7.30;;;2.23;;
14883;SDS011;7534;50.762;7.000;2023-03-26T02:28:49;7.50;;;2.23;;
14883;SDS011;7534;50.762;7.000;2023-03-26T02:31:15;11.17;;;2.63;;
14883;SDS011;7534;50.762;7.000;2023-03-26T02:33:43;12.57;;;2.37;;
14883;SDS011;7534;50.762;7.000;2023-03-26T02:36:11;7.83;;;2.23;;
14883;SDS011;7534;50.762;7.000;2023-03-26T02:38:38;9.43;;;2.20;;
14883;SDS011;7534;50.762;7.000;2023-03-26T02:41:05;9.13;;;1.93;;
14883;SDS011;7534;50.762;7.000;2023-03-26T02:43:31;10.73;;;2.40;;
14883;SDS011;7534;50.762;7.000;2023-03-26T02:45:57;7.80;;;2.00;;
14883;SDS011;7534;50.762;7.000;2023-03-26T02:48:23;8.73;;;2.77;;
14883;SDS011;7534;50.762;7.000;2023-03-26T02:50:49;11.53;;;3.00;;
14883;SDS011;7534;50.762;7.000;2023-03-26T02:53:18;9.50;;;2.13;;
14883;SDS011;7534;50.762;7.000;2023-03-26T02:55:53;8.97;;;2.60;;
14883;SDS011;7534;50.762;7.000;2023-03-26T02:58:23;11.60;;;2.63;;
14883;SDS011;7534;50.762;7.000;2023-03-26T03:00:50;9.07;;;2.80;;
14883;SDS011;7534;50.762;7.000;2023-03-26T03:03:24;6.70;;;2.60;;
14883;SDS011;7534;50.762;7.000;2023-03-26T03:05:52;9.63;;;2.60;;
14883;SDS011;7534;50.762;7.000;2023-03-26T03:08:19;10.47;;;2.50;;
14883;SDS011;7534;50.762;7.000;2023-03-26T03:13:26;7.13;;;2.30;;
14883;SDS011;7534;50.762;7.000;2023-03-26T03:15:52;10.40;;;2.50;;
14883;SDS011;7534;50.762;7.000;2023-03-26T03:18:18;9.90;;;2.57;;
14883;SDS011;7534;50.762;7.000;2023-03-26T03:20:43;9.70;;;2.40;;
14883;SDS011;7534;50.762;7.000;2023-03-26T03:23:09;10.37;;;2.73;;
14883;SDS011;7534;50.762;7.000;2023-03-26T03:25:35;8.40;;;2.53;;
14883;SDS011;7534;50.762;7.000;2023-03-26T03:28:02;4.83;;;2.30;;
14883;SDS011;7534;50.762;7.000;2023-03-26T03:30:28;8.80;;;2.93;;
14883;SDS011;7534;50.762;7.000;2023-03-26T03:32:54;13.23;;;2.87;;
14883;SDS011;7534;50.762;7.000;2023-03-26T03:35:22;7.83;;;2.63;;
14883;SDS011;7534;50.762;7.000;2023-03-26T03:37:54;8.47;;;2.33;;
14883;SDS011;7534;50.762;7.000;2023-03-26T03:40:23;6.33;;;2.37;;
14883;SDS011;7534;50.762;7.000;2023-03-26T03:42:50;7.93;;;2.17;;
14883;SDS011;7534;50.762;7.000;2023-03-26T03:45:15;10.33;;;2.50;;
14883;SDS011;7534;50.762;7.000;2023-03-26T03:47:42;9.67;;;2.30;;
14883;SDS011;7534;50.762;7.000;2023-03-26T03:50:07;10.30;;;2.30;;
14883;SDS011;7534;50.762;7.000;2023-03-26T03:52:34;9.20;;;2.33;;
14883;SDS011;7534;50.762;7.000;2023-03-26T03:55:00;7.97;;;2.53;;
14883;SDS011;7534;50.762;7.000;2023-03-26T03:57:26;8.33;;;2.47;;
14883;SDS011;7534;50.762;7.000;2023-03-26T03:59:52;8.20;;;2.23;;
14883;SDS011;7534;50.762;7.000;2023-03-26T04:02:22;6.70;;;2.07;;
14883;SDS011;7534;50.762;7.000;2023-03-26T04:04:58;6.70;;;2.63;;
14883;SDS011;7534;50.762;7.000;2023-03-26T04:07:30;6.30;;;2.10;;
14883;SDS011;7534;50.762;7.000;2023-03-26T04:09:57;6.70;;;2.03;;
14883;SDS011;7534;50.762;7.000;2023-03-26T04:12:26;7.90;;;2.60;;
14883;SDS011;7534;50.762;7.000;2023-03-26T04:14:52;10.43;;;2.87;;
14883;SDS011;7534;50.762;7.000;2023-03-26T04:17:19;8.33;;;2.27;;
14883;SDS011;7534;50.762;7.000;2023-03-26T04:19:45;9.43;;;2.77;;
14883;SDS011;7534;50.762;7.000;2023-03-26T04:22:12;9.70;;;2.50;;
14883;SDS011;7534;50.762;7.000;2023-03-26T04:24:38;7.73;;;2.30;;
14883;SDS011;7534;50.762;7.000;2023-03-26T04:27:07;8.27;;;2.63;;
14883;SDS011;7534;50.762;7.000;2023-03-26T04:29:42;7.33;;;2.73;;
14883;SDS011;7534;50.762;7.000;2023-03-26T04:32:23;7.70;;;2.40;;
14883;SDS011;7534;50.762;7.000;2023-03-26T04:34:53;8.03;;;2.43;;
14883;SDS011;7534;50.762;7.000;2023-03-26T04:37:28;8.40;;;2.73;;
14883;SDS011;7534;50.762;7.000;2023-03-26T04:40:04;11.40;;;2.97;;
14883;SDS011;7534;50.762;7.000;2023-03-26T04:42:39;8.40;;;2.80;;
14883;SDS011;7534;50.762;7.000;2023-03-26T04:45:11;8.87;;;2.43;;
14883;SDS011;7534;50.762;7.000;2023-03-26T04:47:46;10.17;;;2.50;;
14883;SDS011;7534;50.762;7.000;2023-03-26T04:50:14;6.93;;;2.70;;
14883;SDS011;7534;50.762;7.000;2023-03-26T04:52:40;8.10;;;2.43;;
14883;SDS011;7534;50.762;7.000;2023-03-26T04:55:11;7.90;;;2.53;;
14883;SDS011;7534;50.762;7.000;2023-03-26T04:58:10;7.83;;;2.63;;
14883;SDS011;7534;50.762;7.000;2023-03-26T05:00:38;5.60;;;2.03;;
14883;SDS011;7534;50.762;7.000;2023-03-26T05:03:07;11.50;;;2.90;;
14883;SDS011;7534;50.762;7.000;2023-03-26T05:05:35;9.10;;;2.67;;
14883;SDS011;7534;50.762;7.000;2023-03-26T05:08:02;8.30;;;2.70;;
14883;SDS011;7534;50.762;7.000;2023-03-26T05:10:28;7.47;;;2.33;;
14883;SDS011;7534;50.762;7.000;2023-03-26T05:12:53;4.80;;;2.40;;
14883;SDS011;7534;50.762;7.000;2023-03-26T05:15:19;11.23;;;2.80;;
14883;SDS011;7534;50.762;7.000;2023-03-26T05:17:45;11.80;;;2.90;;
14883;SDS011;7534;50.762;7.000;2023-03-26T05:22:44;10.97;;;2.70;;
14883;SDS011;7534;50.762;7.000;2023-03-26T05:25:12;8.20;;;2.87;;
14883;SDS011;7534;50.762;7.000;2023-03-26T05:27:38;11.93;;;2.77;;
14883;SDS011;7534;50.762;7.000;2023-03-26T05:30:04;11.97;;;2.87;;
14883;SDS011;7534;50.762;7.000;2023-03-26T05:32:31;14.70;;;3.30;;
14883;SDS011;7534;50.762;7.000;2023-03-26T05:34:58;13.50;;;3.30;;
14883;SDS011;7534;50.762;7.000;2023-03-26T05:37:24;6.90;;;2.50;;
14883;SDS011;7534;50.762;7.000;2023-03-26T05:39:54;9.23;;;2.90;;
14883;SDS011;7534;50.762;7.000;2023-03-26T05:42:21;8.80;;;3.07;;
14883;SDS011;7534;50.762;7.000;2023-03-26T05:44:47;10.60;;;3.00;;
14883;SDS011;7534;50.762;7.000;2023-03-26T05:47:13;11.10;;;3.03;;
14883;SDS011;7534;50.762;7.000;2023-03-26T05:49:39;7.67;;;2.70;;
14883;SDS011;7534;50.762;7.000;2023-03-26T05:52:05;11.67;;;3.13;;
14883;SDS011;7534;50.762;7.000;2023-03-26T05:54:31;10.97;;;3.10;;
14883;SDS011;7534;50.762;7.000;2023-03-26T05:56:56;12.63;;;3.27;;
14883;SDS011;7534;50.762;7.000;2023-03-26T05:59:22;12.70;;;3.30;;
14883;SDS011;7534;50.762;7.000;2023-03-26T06:01:48;10.80;;;3.20;;
14883;SDS011;7534;50.762;7.000;2023-03-26T06:04:15;11.93;;;3.33;;
14883;SDS011;7534;50.762;7.000;2023-03-26T06:06:41;13.97;;;3.73;;
14883;SDS011;7534;50.762;7.000;2023-03-26T06:09:11;9.90;;;3.33;;
14883;SDS011;7534;50.762;7.000;2023-03-26T06:11:37;11.23;;;4.03;;
14883;SDS011;7534;50.762;7.000;2023-03-26T06:14:04;14.70;;;4.33;;
14883;SDS011;7534;50.762;7.000;2023-03-26T06:16:31;14.13;;;4.27;;
14883;SDS011;7534;50.762;7.000;2023-03-26T06:18:57;13.63;;;3.77;;
14883;SDS011;7534;50.762;7.000;2023-03-26T06:21:26;11.93;;;4.23;;
14883;SDS011;7534;50.762;7.000;2023-03-26T06:23:52;13.27;;;3.43;;
14883;SDS011;7534;50.762;7.000;2023-03-26T06:26:18;10.57;;;3.27;;
14883;SDS011;7534;50.762;7.000;2023-03-26T06:28:45;14.17;;;4.07;;
14883;SDS011;7534;50.762;7.000;2023-03-26T06:31:11;12.93;;;3.40;;
14883;SDS011;7534;50.762;7.000;2023-03-26T06:33:37;11.67;;;3.03;;
14883;SDS011;7534;50.762;7.000;2023-03-26T06:36:02;12.43;;;3.77;;
14883;SDS011;7534;50.762;7.000;2023-03-26T06:38:30;14.77;;;4.67;;
14883;SDS011;7534;50.762;7.000;2023-03-26T06:41:02;7.67;;;3.57;;
14883;SDS011;7534;50.762;7.000;2023-03-26T06:43:30;13.07;;;3.70;;
14883;SDS011;7534;50.762;7.000;2023-03-26T06:46:00;17.07;;;3.97;;
14883;SDS011;7534;50.762;7.000;2023-03-26T06:48:27;19.03;;;5.50;;
14883;SDS011;7534;50.762;7.000;2023-03-26T06:50:53;8.50;;;4.00;;
14883;SDS011;7534;50.762;7.000;2023-03-26T06:53:19;10.27;;;4.20;;
14883;SDS011;7534;50.762;7.000;2023-03-26T06:55:44;13.73;;;5.00;;
14883;SDS011;7534;50.762;7.000;2023-03-26T06:58:11;13.20;;;5.57;;
14883;SDS011;7534;50.762;7.000;2023-03-26T07:00:38;14.77;;;5.87;;
14883;SDS011;7534;50.762;7.000;2023-03-26T07:03:06;14.00;;;5.37;;
14883;SDS011;7534;50.762;7.000;2023-03-26T07:05:32;14.13;;;5.67;;
14883;SDS011;7534;50.762;7.000;2023-03-26T07:07:58;13.07;;;5.77;;
14883;SDS011;7534;50.762;7.000;2023-03-26T07:10:24;18.70;;;5.97;;
14883;SDS011;7534;50.762;7.000;2023-03-26T07:12:49;11.67;;;4.80;;
14883;SDS011;7534;50.762;7.000;2023-03-26T07:15:16;16.13;;;5.30;;
14883;SDS011;7534;50.762;7.000;2023-03-26T07:17:43;16.20;;;6.03;;
14883;SDS011;7534;50.762;7.000;2023-03-26T07:20:09;14.47;;;5.67;;
14883;SDS011;7534;50.762;7.000;2023-03-26T07:22:35;19.43;;;8.00;;
14883;SDS011;7534;50.762;7.000;2023-03-26T07:25:02;20.47;;;8.57;;
14883;SDS011;7534;50.762;7.000;2023-03-26T07:27:35;24.83;;;10.10;;
14883;SDS011;7534;50.762;7.000;2023-03-26T07:33:36;13.87;;;4.87;;
14883;SDS011;7534;50.762;7.000;2023-03-26T07:36:28;20.00;;;6.63;;
14883;SDS011;7534;50.762;7.000;2023-03-26T07:41:49;20.63;;;7.80;;
14883;SDS011;7534;50.762;7.000;2023-03-26T07:44:40;14.53;;;6.40;;
14883;SDS011;7534;50.762;7.000;2023-03-26T07:47:47;14.87;;;6.80;;
14883;SDS011;7534;50.762;7.000;2023-03-26T07:50:16;19.23;;;5.60;;
14883;SDS011;7534;50.762;7.000;2023-03-26T07:52:45;16.10;;;6.13;;
14883;SDS011;7534;50.762;7.000;2023-03-26T07:55:12;17.73;;;6.23;;
14883;SDS011;7534;50.762;7.000;2023-03-26T08:03:37;13.60;;;5.80;;
14883;SDS011;7534;50.762;7.000;2023-03-26T08:06:33;9.53;;;4.50;;
14883;SDS011;7534;50.762;7.000;2023-03-26T08:11:33;13.10;;;5.50;;
14883;SDS011;7534;50.762;7.000;2023-03-26T08:14:23;15.63;;;6.00;;
14883;SDS011;7534;50.762;7.000;2023-03-26T08:17:27;14.80;;;5.60;;
14883;SDS011;7534;50.762;7.000;2023-03-26T08:20:23;14.80;;;4.90;;
14883;SDS011;7534;50.762;7.000;2023-03-26T08:27:10;14.50;;;4.60;;
14883;SDS011;7534;50.762;7.000;2023-03-26T08:32:22;12.40;;;4.50;;
14883;SDS011;7534;50.762;7.000;2023-03-26T08:34:48;11.43;;;5.20;;
14883;SDS011;7534;50.762;7.000;2023-03-26T08:37:13;15.60;;;5.73;;
14883;SDS011;7534;50.762;7.000;2023-03-26T08:39:39;13.23;;;4.90;;
14883;SDS011;7534;50.762;7.000;2023-03-26T08:54:05;11.40;;;3.43;;
14883;SDS011;7534;50.762;7.000;2023-03-26T09:03:38;9.10;;;4.10;;
14883;SDS011;7534;50.762;7.000;2023-03-26T09:06:44;11.07;;;4.13;;
14883;SDS011;7534;50.762;7.000;2023-03-26T09:15:57;12.53;;;4.60;;
14883;SDS011;7534;50.762;7.000;2023-03-26T09:23:00;11.70;;;3.97;;
14883;SDS011;7534;50.762;7.000;2023-03-26T09:31:41;13.33;;;3.93;;
14883;SDS011;7534;50.762;7.000;2023-03-26T09:40:35;7.03;;;3.27;;
14883;SDS011;7534;50.762;7.000;2023-03-26T09:43:26;10.03;;;3.37;;
14883;SDS011;7534;50.762;7.000;2023-03-26T09:57:45;9.23;;;3.70;;
14883;SDS011;7534;50.762;7.000;2023-03-26T10:00:50;8.03;;;3.63;;
14883;SDS011;7534;50.762;7.000;2023-03-26T10:03:50;9.10;;;4.07;;
14883;SDS011;7534;50.762;7.000;2023-03-26T10:07:00;5.17;;;3.23;;
14883;SDS011;7534;50.762;7.000;2023-03-26T10:12:36;5.90;;;2.77;;
14883;SDS011;7534;50.762;7.000;2023-03-26T10:15:12;5.10;;;2.70;;
14883;SDS011;7534;50.762;7.000;2023-03-26T10:24:12;6.20;;;2.30;;
14883;SDS011;7534;50.762;7.000;2023-03-26T10:56:54;7.83;;;4.27;;
14883;SDS011;7534;50.762;7.000;2023-03-26T10:59:21;5.00;;;3.40;;
14883;SDS011;7534;50.762;7.000;2023-03-26T11:04:48;8.40;;;3.03;;
14883;SDS011;7534;50.762;7.000;2023-03-26T11:14:26;4.33;;;2.77;;
14883;SDS011;7534;50.762;7.000;2023-03-26T11:17:09;7.53;;;3.33;;
14883;SDS011;7534;50.762;7.000;2023-03-26T11:23:03;5.20;;;2.50;;
14883;SDS011;7534;50.762;7.000;2023-03-26T11:32:25;6.77;;;2.70;;
14883;SDS011;7534;50.762;7.000;2023-03-26T11:34:39;4.33;;;2.30;;
14883;SDS011;7534;50.762;7.000;2023-03-26T11:37:30;4.03;;;2.40;;
14883;SDS011;7534;50.762;7.000;2023-03-26T11:40:12;3.60;;;1.87;;
14883;SDS011;7534;50.762;7.000;2023-03-26T11:42:45;3.60;;;2.00;;
14883;SDS011;7534;50.762;7.000;2023-03-26T11:45:20;2.30;;;1.50;;
14883;SDS011;7534;50.762;7.000;2023-03-26T11:48:00;1.23;;;0.90;;
14883;SDS011;7534;50.762;7.000;2023-03-26T11:50:43;0.70;;;0.70;;
14883;SDS011;7534;50.762;7.000;2023-03-26T11:53:18;1.23;;;0.73;;
14883;SDS011;7534;50.762;7.000;2023-03-26T11:55:52;0.60;;;0.60;;
14883;SDS011;7534;50.762;7.000;2023-03-26T11:58:35;0.40;;;0.40;;
14883;SDS011;7534;50.762;7.000;2023-03-26T12:01:25;0.40;;;0.40;;
14883;SDS011;7534;50.762;7.000;2023-03-26T12:04:11;0.43;;;0.43;;
14883;SDS011;7534;50.762;7.000;2023-03-26T12:06:49;0.30;;;0.30;;
14883;SDS011;7534;50.762;7.000;2023-03-26T12:09:21;0.37;;;0.33;;
14883;SDS011;7534;50.762;7.000;2023-03-26T12:11:48;0.40;;;0.40;;
14883;SDS011;7534;50.762;7.000;2023-03-26T12:14:27;0.30;;;0.30;;
14883;SDS011;7534;50.762;7.000;2023-03-26T12:19:44;0.30;;;0.30;;
14883;SDS011;7534;50.762;7.000;2023-03-26T12:27:50;0.40;;;0.40;;
14883;SDS011;7534;50.762;7.000;2023-03-26T12:33:27;0.50;;;0.50;;
14883;SDS011;7534;50.762;7.000;2023-03-26T12:36:14;0.60;;;0.50;;
14883;SDS011;7534;50.762;7.000;2023-03-26T12:38:47;0.60;;;0.50;;
14883;SDS011;7534;50.762;7.000;2023-03-26T12:41:13;0.60;;;0.60;;
14883;SDS011;7534;50.762;7.000;2023-03-26T12:43:43;0.40;;;0.40;;
14883;SDS011;7534;50.762;7.000;2023-03-26T12:49:04;0.63;;;0.63;;
14883;SDS011;7534;50.762;7.000;2023-03-26T12:54:48;0.63;;;0.50;;
14883;SDS011;7534;50.762;7.000;2023-03-26T13:06:44;0.57;;;0.57;;
14883;SDS011;7534;50.762;7.000;2023-03-26T13:15:22;0.50;;;0.50;;
14883;SDS011;7534;50.762;7.000;2023-03-26T13:18:11;0.60;;;0.60;;
14883;SDS011;7534;50.762;7.000;2023-03-26T13:21:09;0.50;;;0.50;;
14883;SDS011;7534;50.762;7.000;2023-03-26T13:32:28;0.70;;;0.70;;
14883;SDS011;7534;50.762;7.000;2023-03-26T13:44:18;1.20;;;1.10;;
14883;SDS011;7534;50.762;7.000;2023-03-26T13:46:50;1.63;;;1.50;;
14883;SDS011;7534;50.762;7.000;2023-03-26T13:52:20;1.50;;;1.40;;
14883;SDS011;7534;50.762;7.000;2023-03-26T14:03:49;1.90;;;1.80;;
14883;SDS011;7534;50.762;7.000;2023-03-26T14:09:53;1.80;;;1.70;;
14883;SDS011;7534;50.762;7.000;2023-03-26T14:15:26;2.20;;;1.70;;
14883;SDS011;7534;50.762;7.000;2023-03-26T14:18:26;1.97;;;1.87;;
14883;SDS011;7534;50.762;7.000;2023-03-26T14:21:32;1.70;;;1.60;;
14883;SDS011;7534;50.762;7.000;2023-03-26T14:24:15;1.90;;;1.80;;
14883;SDS011;7534;50.762;7.000;2023-03-26T14:35:36;3.10;;;2.10;;
14883;SDS011;7534;50.762;7.000;2023-03-26T14:47:20;3.50;;;3.20;;
14883;SDS011;7534;50.762;7.000;2023-03-26T14:53:28;4.33;;;3.87;;
14883;SDS011;7534;50.762;7.000;2023-03-26T14:56:05;4.47;;;4.00;;
14883;SDS011;7534;50.762;7.000;2023-03-26T15:22:32;5.10;;;4.37;;
14883;SDS011;7534;50.762;7.000;2023-03-26T15:31:58;3.37;;;3.07;;
14883;SDS011;7534;50.762;7.000;2023-03-26T15:35:00;3.60;;;3.13;;
14883;SDS011;7534;50.762;7.000;2023-03-26T15:41:09;3.40;;;3.10;;
14883;SDS011;7534;50.762;7.000;2023-03-26T15:52:51;4.57;;;2.50;;
14883;SDS011;7534;50.762;7.000;2023-03-26T15:55:42;4.90;;;3.90;;
14883;SDS011;7534;50.762;7.000;2023-03-26T15:58:43;2.80;;;2.60;;
14883;SDS011;7534;50.762;7.000;2023-03-26T16:07:39;3.17;;;2.60;;
14883;SDS011;7534;50.762;7.000;2023-03-26T16:19:32;3.57;;;2.50;;
14883;SDS011;7534;50.762;7.000;2023-03-26T16:24:34;2.17;;;1.60;;
14883;SDS011;7534;50.762;7.000;2023-03-26T16:27:06;7.43;;;4.83;;
14883;SDS011;7534;50.762;7.000;2023-03-26T16:32:34;1.90;;;1.73;;
14883;SDS011;7534;50.762;7.000;2023-03-26T16:37:38;2.40;;;2.20;;
14883;SDS011;7534;50.762;7.000;2023-03-26T16:42:53;1.90;;;1.80;;
14883;SDS011;7534;50.762;7.000;2023-03-26T16:57:19;2.90;;;2.60;;
14883;SDS011;7534;50.762;7.000;2023-03-26T16:59:54;3.30;;;3.00;;
14883;SDS011;7534;50.762;7.000;2023-03-26T17:03:03;2.43;;;2.10;;
14883;SDS011;7534;50.762;7.000;2023-03-26T17:06:02;1.97;;;1.80;;
14883;SDS011;7534;50.762;7.000;2023-03-26T17:09:58;3.17;;;1.97;;
14883;SDS011;7534;50.762;7.000;2023-03-26T17:26:54;3.33;;;2.20;;
14883;SDS011;7534;50.762;7.000;2023-03-26T17:32:50;2.50;;;1.60;;
14883;SDS011;7534;50.762;7.000;2023-03-26T17:35:42;1.67;;;1.47;;
14883;SDS011;7534;50.762;7.000;2023-03-26T17:40:52;1.87;;;1.60;;
14883;SDS011;7534;50.762;7.000;2023-03-26T17:57:14;2.50;;;2.30;;
14883;SDS011;7534;50.762;7.000;2023-03-26T18:00:04;2.80;;;2.60;;
14883;SDS011;7534;50.762;7.000;2023-03-26T18:02:34;2.80;;;2.60;;
14883;SDS011;7534;50.762;7.000;2023-03-26T18:05:08;2.63;;;2.33;;
14883;SDS011;7534;50.762;7.000;2023-03-26T18:11:18;2.73;;;2.20;;
14883;SDS011;7534;50.762;7.000;2023-03-26T18:17:04;2.93;;;2.10;;
14883;SDS011;7534;50.762;7.000;2023-03-26T18:19:44;3.20;;;2.90;;
14883;SDS011;7534;50.762;7.000;2023-03-26T18:22:28;3.27;;;2.40;;
14883;SDS011;7534;50.762;7.000;2023-03-26T18:24:57;6.27;;;3.77;;
14883;SDS011;7534;50.762;7.000;2023-03-26T18:27:34;8.93;;;6.03;;
14883;SDS011;7534;50.762;7.000;2023-03-26T18:32:51;6.83;;;4.83;;
14883;SDS011;7534;50.762;7.000;2023-03-26T18:35:24;6.97;;;5.40;;
14883;SDS011;7534;50.762;7.000;2023-03-26T18:38:01;15.80;;;12.13;;
14883;SDS011;7534;50.762;7.000;2023-03-26T18:40:38;4.47;;;3.97;;
14883;SDS011;7534;50.762;7.000;2023-03-26T18:43:27;6.23;;;4.80;;
14883;SDS011;7534;50.762;7.000;2023-03-26T18:45:53;6.73;;;5.30;;
14883;SDS011;7534;50.762;7.000;2023-03-26T18:50:52;10.40;;;6.90;;
14883;SDS011;7534;50.762;7.000;2023-03-26T18:53:25;12.23;;;7.37;;
14883;SDS011;7534;50.762;7.000;2023-03-26T18:55:54;12.13;;;9.03;;
14883;SDS011;7534;50.762;7.000;2023-03-26T18:58:34;12.53;;;8.17;;
14883;SDS011;7534;50.762;7.000;2023-03-26T19:01:05;15.43;;;10.07;;
14883;SDS011;7534;50.762;7.000;2023-03-26T19:03:35;21.47;;;12.03;;
14883;SDS011;7534;50.762;7.000;2023-03-26T19:06:09;20.40;;;11.97;;
14883;SDS011;7534;50.762;7.000;2023-03-26T19:08:37;20.70;;;9.30;;
14883;SDS011;7534;50.762;7.000;2023-03-26T19:11:07;20.37;;;8.10;;
14883;SDS011;7534;50.762;7.000;2023-03-26T19:13:36;15.27;;;6.90;;
14883;SDS011;7534;50.762;7.000;2023-03-26T19:16:40;16.20;;;6.90;;
14883;SDS011;7534;50.762;7.000;2023-03-26T19:19:07;13.67;;;6.47;;
14883;SDS011;7534;50.762;7.000;2023-03-26T19:21:40;19.93;;;7.97;;
14883;SDS011;7534;50.762;7.000;2023-03-26T19:24:06;16.73;;;7.97;;
14883;SDS011;7534;50.762;7.000;2023-03-26T19:26:33;14.30;;;5.50;;
14883;SDS011;7534;50.762;7.000;2023-03-26T19:29:00;15.67;;;6.87;;
14883;SDS011;7534;50.762;7.000;2023-03-26T19:31:37;21.77;;;10.93;;
14883;SDS011;7534;50.762;7.000;2023-03-26T19:36:46;19.67;;;8.60;;
14883;SDS011;7534;50.762;7.000;2023-03-26T19:42:25;14.80;;;6.20;;
14883;SDS011;7534;50.762;7.000;2023-03-26T19:44:55;17.27;;;6.63;;
14883;SDS011;7534;50.762;7.000;2023-03-26T19:47:40;15.53;;;6.80;;
14883;SDS011;7534;50.762;7.000;2023-03-26T19:50:19;18.67;;;8.00;;
14883;SDS011;7534;50.762;7.000;2023-03-26T19:55:40;14.57;;;6.97;;
14883;SDS011;7534;50.762;7.000;2023-03-26T19:58:10;17.43;;;8.33;;
14883;SDS011;7534;50.762;7.000;2023-03-26T20:00:36;18.27;;;7.03;;
14883;SDS011;7534;50.762;7.000;2023-03-26T20:03:01;19.73;;;8.30;;
14883;SDS011;7534;50.762;7.000;2023-03-26T20:05:30;21.27;;;8.07;;
14883;SDS011;7534;50.762;7.000;2023-03-26T20:08:12;15.10;;;6.73;;
14883;SDS011;7534;50.762;7.000;2023-03-26T20:10:41;18.73;;;7.70;;
14883;SDS011;7534;50.762;7.000;2023-03-26T20:13:12;16.83;;;6.10;;
14883;SDS011;7534;50.762;7.000;2023-03-26T20:15:40;16.73;;;5.47;;
14883;SDS011;7534;50.762;7.000;2023-03-26T20:18:16;13.87;;;4.27;;
14883;SDS011;7534;50.762;7.000;2023-03-26T20:20:41;13.40;;;4.07;;
14883;SDS011;7534;50.762;7.000;2023-03-26T20:23:16;14.17;;;5.27;;
14883;SDS011;7534;50.762;7.000;2023-03-26T20:25:47;14.93;;;5.30;;
14883;SDS011;7534;50.762;7.000;2023-03-26T20:28:18;15.60;;;5.00;;
14883;SDS011;7534;50.762;7.000;2023-03-26T20:30:45;15.30;;;5.73;;
14883;SDS011;7534;50.762;7.000;2023-03-26T20:33:23;17.10;;;7.33;;
14883;SDS011;7534;50.762;7.000;2023-03-26T20:35:54;16.03;;;7.30;;
14883;SDS011;7534;50.762;7.000;2023-03-26T20:38:21;11.37;;;6.03;;
14883;SDS011;7534;50.762;7.000;2023-03-26T20:40:53;15.60;;;6.60;;
14883;SDS011;7534;50.762;7.000;2023-03-26T20:43:19;10.77;;;4.80;;
14883;SDS011;7534;50.762;7.000;2023-03-26T20:45:48;21.47;;;7.93;;
14883;SDS011;7534;50.762;7.000;2023-03-26T20:48:14;13.97;;;6.57;;
14883;SDS011;7534;50.762;7.000;2023-03-26T20:50:40;13.80;;;4.37;;
14883;SDS011;7534;50.762;7.000;2023-03-26T20:53:13;12.73;;;4.57;;
14883;SDS011;7534;50.762;7.000;2023-03-26T20:55:40;11.70;;;4.70;;
14883;SDS011;7534;50.762;7.000;2023-03-26T20:58:11;11.73;;;3.87;;
14883;SDS011;7534;50.762;7.000;2023-03-26T21:00:39;11.00;;;5.57;;
14883;SDS011;7534;50.762;7.000;2023-03-26T21:03:12;11.57;;;4.30;;
14883;SDS011;7534;50.762;7.000;2023-03-26T21:05:40;10.90;;;4.10;;
14883;SDS011;7534;50.762;7.000;2023-03-26T21:08:17;9.30;;;3.90;;
14883;SDS011;7534;50.762;7.000;2023-03-26T21:10:44;12.30;;;4.43;;
14883;SDS011;7534;50.762;7.000;2023-03-26T21:13:32;14.27;;;3.70;;
14883;SDS011;7534;50.762;7.000;2023-03-26T21:16:13;10.07;;;4.10;;
14883;SDS011;7534;50.762;7.000;2023-03-26T21:18:41;9.67;;;3.90;;
14883;SDS011;7534;50.762;7.000;2023-03-26T21:27:11;9.13;;;3.30;;
14883;SDS011;7534;50.762;7.000;2023-03-26T21:29:55;12.27;;;4.33;;
14883;SDS011;7534;50.762;7.000;2023-03-26T21:32:25;11.17;;;2.87;;
14883;SDS011;7534;50.762;7.000;2023-03-26T21:34:55;15.73;;;5.27;;
14883;SDS011;7534;50.762;7.000;2023-03-26T21:37:21;12.37;;;3.23;;
14883;SDS011;7534;50.762;7.000;2023-03-26T21:39:49;13.40;;;3.57;;
14883;SDS011;7534;50.762;7.000;2023-03-26T21:42:16;11.13;;;3.60;;
14883;SDS011;7534;50.762;7.000;2023-03-26T21:44:42;11.83;;;3.13;;
14883;SDS011;7534;50.762;7.000;2023-03-26T21:47:08;11.37;;;2.90;;
14883;SDS011;7534;50.762;7.000;2023-03-26T21:49:35;11.37;;;2.77;;
14883;SDS011;7534;50.762;7.000;2023-03-26T21:52:03;10.67;;;2.80;;
14883;SDS011;7534;50.762;7.000;2023-03-26T21:54:30;16.13;;;3.63;;
14883;SDS011;7534;50.762;7.000;2023-03-26T21:57:10;9.23;;;3.47;;
14883;SDS011;7534;50.762;7.000;2023-03-26T22:00:09;12.13;;;3.97;;
14883;SDS011;7534;50.762;7.000;2023-03-26T22:02:53;8.47;;;2.30;;